createdAt,value
2023-01-19T00:01:46.368Z,14.31
2023-01-19T00:04:15.553Z,14.25
2023-01-19T00:06:44.440Z,14.23
2023-01-19T00:09:13.758Z,14.17
2023-01-19T00:11:43.235Z,14.18
2023-01-19T00:14:12.432Z,14.18
2023-01-19T00:16:41.571Z,14.13
2023-01-19T00:19:10.818Z,14.06
2023-01-19T00:21:39.671Z,14.12
2023-01-19T00:24:09.064Z,13.97
2023-01-19T00:26:41.538Z,14.01
2023-01-19T00:29:12.819Z,14.00
2023-01-19T00:31:42.881Z,13.97
2023-01-19T00:34:12.099Z,13.87
2023-01-19T00:36:41.327Z,13.82
2023-01-19T00:39:10.552Z,13.79
2023-01-19T00:41:58.100Z,13.70
2023-01-19T00:44:27.243Z,13.46
2023-01-19T00:46:56.285Z,13.43
2023-01-19T00:49:25.550Z,13.43
2023-01-19T00:51:54.475Z,13.45
2023-01-19T00:54:23.941Z,13.40
2023-01-19T00:56:52.902Z,13.27
2023-01-19T00:59:22.334Z,13.24
2023-01-19T01:01:53.157Z,13.19
2023-01-19T01:04:24.303Z,13.20
2023-01-19T01:06:54.219Z,13.20
2023-01-19T01:09:25.474Z,13.06
2023-01-19T01:11:55.459Z,13.06
2023-01-19T01:14:25.840Z,12.99
2023-01-19T01:16:59.195Z,12.90
2023-01-19T01:19:28.990Z,12.86
2023-01-19T01:21:58.345Z,12.88
2023-01-19T01:24:27.812Z,12.89
2023-01-19T01:26:58.022Z,12.91
2023-01-19T01:29:27.813Z,12.89
2023-01-19T01:31:57.835Z,12.64
2023-01-19T01:34:26.730Z,12.73
2023-01-19T01:36:56.020Z,12.73
2023-01-19T01:39:25.498Z,12.70
2023-01-19T01:41:55.899Z,12.50
2023-01-19T01:44:53.872Z,12.68
2023-01-19T01:47:29.107Z,12.50
2023-01-19T01:50:19.248Z,12.67
2023-01-19T01:53:07.639Z,12.50
2023-01-19T01:55:48.823Z,12.53
2023-01-19T01:58:18.699Z,12.37
2023-01-19T02:01:06.469Z,12.34
2023-01-19T02:03:36.522Z,12.25
2023-01-19T02:06:08.906Z,12.29
2023-01-19T02:09:27.095Z,12.45
2023-01-19T02:12:15.498Z,12.33
2023-01-19T02:14:44.846Z,12.25
2023-01-19T02:17:14.130Z,12.24
2023-01-19T02:19:45.477Z,12.35
2023-01-19T02:22:18.873Z,12.26
2023-01-19T02:24:48.518Z,12.22
2023-01-19T02:27:18.604Z,12.19
2023-01-19T02:29:48.214Z,12.19
2023-01-19T02:32:17.220Z,12.14
2023-01-19T02:34:46.730Z,12.14
2023-01-19T02:37:19.397Z,12.12
2023-01-19T02:39:58.960Z,12.27
2023-01-19T02:42:53.162Z,12.36
2023-01-19T02:45:24.208Z,12.31
2023-01-19T02:47:54.337Z,12.33
2023-01-19T02:51:05.373Z,12.59
2023-01-19T02:53:34.944Z,12.49
2023-01-19T02:56:24.862Z,12.56
2023-01-19T02:59:07.709Z,12.64
2023-01-19T03:01:48.582Z,12.96
2023-01-19T03:04:39.127Z,12.94
2023-01-19T03:07:27.080Z,13.00
2023-01-19T03:10:04.492Z,13.04
2023-01-19T03:12:44.820Z,13.12
2023-01-19T03:15:34.759Z,13.19
2023-01-19T03:18:08.202Z,13.19
2023-01-19T03:20:39.133Z,13.25
2023-01-19T03:23:14.135Z,13.37
2023-01-19T03:25:48.656Z,13.42
2023-01-19T03:28:21.475Z,13.49
2023-01-19T03:30:59.465Z,13.61
2023-01-19T03:33:36.398Z,13.67
2023-01-19T03:36:13.447Z,13.69
2023-01-19T03:38:45.525Z,13.79
2023-01-19T03:41:19.292Z,13.94
2023-01-19T03:43:51.243Z,13.97
2023-01-19T03:46:22.035Z,14.02
2023-01-19T03:48:52.021Z,14.18
2023-01-19T03:51:21.513Z,14.19
2023-01-19T03:53:51.491Z,14.30
2023-01-19T03:56:26.384Z,14.55
2023-01-19T03:58:56.325Z,14.47
2023-01-19T04:01:27.073Z,14.57
2023-01-19T04:03:56.813Z,14.62
2023-01-19T04:06:26.603Z,14.68
2023-01-19T04:08:56.141Z,14.64
2023-01-19T04:11:25.653Z,14.80
2023-01-19T04:13:55.726Z,14.91
2023-01-19T04:16:25.317Z,15.10
2023-01-19T04:18:54.433Z,15.14
2023-01-19T04:21:24.056Z,15.18
2023-01-19T04:23:54.386Z,15.29
2023-01-19T04:26:26.884Z,15.24
2023-01-19T04:28:56.298Z,15.43
2023-01-19T04:31:26.391Z,15.54
2023-01-19T04:33:57.401Z,15.67
2023-01-19T04:36:27.240Z,15.75
2023-01-19T04:38:56.856Z,15.85
2023-01-19T04:41:26.326Z,15.88
2023-01-19T04:43:56.009Z,15.90
2023-01-19T04:46:25.306Z,16.01
2023-01-19T04:48:54.759Z,16.10
2023-01-19T04:51:24.136Z,16.10
2023-01-19T04:53:53.746Z,16.31
2023-01-19T04:56:23.837Z,16.39
2023-01-19T04:58:53.036Z,16.44
2023-01-19T05:01:22.433Z,16.52
2023-01-19T05:03:51.908Z,16.58
2023-01-19T05:06:21.141Z,16.67
2023-01-19T05:08:50.636Z,16.69
2023-01-19T05:11:20.032Z,16.75
2023-01-19T05:13:50.879Z,16.79
2023-01-19T05:16:20.633Z,16.85
2023-01-19T05:18:50.124Z,16.86
2023-01-19T05:21:19.471Z,16.98
2023-01-19T05:23:48.290Z,16.98
2023-01-19T05:26:17.919Z,17.01
2023-01-19T05:28:47.589Z,17.10
2023-01-19T05:31:18.650Z,17.18
2023-01-19T05:33:50.178Z,17.25
2023-01-19T05:36:19.126Z,17.35
2023-01-19T05:38:48.430Z,17.45
2023-01-19T05:41:18.749Z,17.45
2023-01-19T05:43:48.155Z,17.63
2023-01-19T05:46:17.513Z,17.67
2023-01-19T05:48:46.944Z,17.73
2023-01-19T05:51:16.226Z,17.81
2023-01-19T05:53:45.512Z,17.90
2023-01-19T05:56:14.582Z,17.98
2023-01-19T05:58:43.507Z,17.93
2023-01-19T06:01:12.820Z,17.90
2023-01-19T06:03:42.120Z,18.13
2023-01-19T06:06:11.149Z,18.27
2023-01-19T06:08:40.763Z,18.35
2023-01-19T06:11:10.723Z,18.38
2023-01-19T06:13:44.400Z,18.42
2023-01-19T06:16:14.115Z,18.48
2023-01-19T06:18:43.852Z,18.53
2023-01-19T06:21:15.253Z,18.61
2023-01-19T06:23:44.826Z,18.76
2023-01-19T06:26:14.831Z,18.84
2023-01-19T06:28:44.123Z,18.93
2023-01-19T06:31:14.013Z,19.02
2023-01-19T06:33:43.820Z,18.99
2023-01-19T06:36:13.415Z,19.01
2023-01-19T06:38:42.786Z,19.08
2023-01-19T06:41:12.304Z,19.13
2023-01-19T06:43:41.806Z,19.22
2023-01-19T06:46:11.420Z,19.23
2023-01-19T06:48:40.890Z,19.26
2023-01-19T06:51:37.971Z,19.47
2023-01-19T06:54:06.983Z,19.31
2023-01-19T06:56:35.770Z,19.35
2023-01-19T06:59:05.517Z,19.40
2023-01-19T07:01:34.696Z,19.51
2023-01-19T07:04:04.989Z,19.49
2023-01-19T07:06:34.485Z,19.57
2023-01-19T07:09:08.001Z,19.56
2023-01-19T07:11:37.882Z,19.63
2023-01-19T07:14:07.490Z,19.79
2023-01-19T07:16:36.840Z,19.78
2023-01-19T07:19:06.129Z,19.86
2023-01-19T07:21:35.163Z,19.84
2023-01-19T07:24:04.887Z,19.94
2023-01-19T07:26:34.260Z,19.86
2023-01-19T07:29:03.827Z,19.76
2023-01-19T07:31:33.304Z,19.84
2023-01-19T07:34:02.452Z,19.79
2023-01-19T07:36:32.327Z,19.76
2023-01-19T07:39:01.483Z,19.93
2023-01-19T07:41:30.625Z,19.93
2023-01-19T07:44:04.481Z,19.93
2023-01-19T07:46:33.922Z,20.08
2023-01-19T07:49:03.336Z,20.03
2023-01-19T07:51:32.537Z,20.07
2023-01-19T07:54:02.607Z,20.05
2023-01-19T07:56:44.938Z,20.25
2023-01-19T07:59:14.379Z,20.28
2023-01-19T08:01:43.421Z,20.12
2023-01-19T08:04:13.473Z,20.20
2023-01-19T08:06:47.398Z,20.24
2023-01-19T08:09:16.663Z,20.32
2023-01-19T08:11:45.976Z,20.29
2023-01-19T08:14:15.210Z,20.13
2023-01-19T08:16:44.593Z,20.27
2023-01-19T08:19:14.568Z,20.21
2023-01-19T08:21:44.375Z,20.23
2023-01-19T08:24:22.637Z,20.42
2023-01-19T08:26:52.861Z,20.42
2023-01-19T08:29:22.543Z,20.30
2023-01-19T08:31:52.002Z,20.32
2023-01-19T08:34:21.810Z,20.35
2023-01-19T08:36:51.281Z,20.34
2023-01-19T08:39:20.921Z,20.36
2023-01-19T08:41:51.090Z,20.33
2023-01-19T08:44:21.040Z,20.33
2023-01-19T08:46:50.947Z,20.37
2023-01-19T08:49:20.259Z,20.42
2023-01-19T08:55:18.351Z,20.26
2023-01-19T08:57:47.764Z,20.22
2023-01-19T09:00:17.732Z,20.47
2023-01-19T09:02:53.109Z,20.58
2023-01-19T09:05:23.755Z,20.34
2023-01-19T09:07:53.444Z,20.43
2023-01-19T09:10:23.063Z,20.44
2023-01-19T09:12:52.796Z,20.42
2023-01-19T09:15:21.704Z,20.29
2023-01-19T09:17:53.360Z,20.40
2023-01-19T09:20:24.439Z,20.17
2023-01-19T09:22:53.866Z,20.11
2023-01-19T09:25:23.229Z,20.29
2023-01-19T09:27:53.282Z,20.09
2023-01-19T09:30:22.801Z,20.11
2023-01-19T09:32:52.198Z,20.20
2023-01-19T09:35:22.795Z,20.02
2023-01-19T09:37:52.288Z,19.91
2023-01-19T09:40:22.598Z,20.14
2023-01-19T09:43:25.743Z,20.36
2023-01-19T09:46:02.356Z,20.30
2023-01-19T09:48:40.751Z,20.15
2023-01-19T09:51:24.389Z,20.23
2023-01-19T09:54:13.971Z,20.42
2023-01-19T09:56:51.219Z,19.97
2023-01-19T09:59:23.799Z,20.00
2023-01-19T10:02:05.242Z,20.22
2023-01-19T10:04:42.395Z,19.99
2023-01-19T10:07:54.486Z,20.00
2023-01-19T10:10:32.934Z,19.85
2023-01-19T10:13:13.877Z,19.93
2023-01-19T10:15:43.027Z,19.59
2023-01-19T10:18:15.326Z,19.69
2023-01-19T10:20:53.189Z,19.79
2023-01-19T10:23:41.340Z,19.71
2023-01-19T10:26:24.675Z,19.77
2023-01-19T10:28:59.071Z,19.87
2023-01-19T10:31:28.569Z,19.57
2023-01-19T10:33:58.259Z,19.60
2023-01-19T10:36:30.419Z,19.58
2023-01-19T10:39:00.242Z,19.57
2023-01-19T10:41:53.484Z,19.89
2023-01-19T10:44:31.150Z,19.69
2023-01-19T10:47:03.183Z,19.71
2023-01-19T10:49:40.267Z,19.57
2023-01-19T10:52:21.030Z,19.56
2023-01-19T10:54:50.514Z,19.52
2023-01-19T10:57:32.023Z,19.65
2023-01-19T11:00:01.651Z,19.50
2023-01-19T11:02:33.374Z,19.48
2023-01-19T11:05:24.679Z,19.62
2023-01-19T11:07:54.131Z,19.48
2023-01-19T11:10:25.240Z,19.41
2023-01-19T11:13:02.320Z,19.44
2023-01-19T11:15:56.190Z,19.55
2023-01-19T11:18:33.592Z,19.52
2023-01-19T11:21:15.587Z,19.41
2023-01-19T11:23:52.014Z,19.34
2023-01-19T11:26:42.797Z,19.34
2023-01-19T11:29:23.432Z,19.25
2023-01-19T11:31:54.379Z,19.25
2023-01-19T11:34:41.264Z,19.35
2023-01-19T11:37:20.396Z,19.22
2023-01-19T11:39:53.602Z,19.07
2023-01-19T11:42:24.170Z,19.01
2023-01-19T11:44:56.153Z,18.98
2023-01-19T11:47:42.772Z,19.09
2023-01-19T11:50:30.784Z,19.03
2023-01-19T11:53:18.918Z,19.06
2023-01-19T11:55:59.256Z,19.05
2023-01-19T11:58:29.217Z,18.93
2023-01-19T12:01:22.091Z,18.90
2023-01-19T12:04:11.734Z,18.92
2023-01-19T12:06:48.933Z,18.91
2023-01-19T12:09:43.703Z,18.92
2023-01-19T12:12:33.613Z,18.84
2023-01-19T12:15:23.740Z,18.72
2023-01-19T12:17:56.466Z,18.74
2023-01-19T12:20:47.724Z,18.57
2023-01-19T12:23:34.441Z,18.50
2023-01-19T12:26:34.779Z,18.55
2023-01-19T12:29:15.834Z,18.58
2023-01-19T12:31:45.136Z,18.30
2023-01-19T12:34:41.644Z,18.33
2023-01-19T12:37:32.089Z,18.55
2023-01-19T12:40:29.794Z,18.58
2023-01-19T12:43:07.193Z,18.56
2023-01-19T12:45:40.774Z,18.44
2023-01-19T12:48:26.417Z,18.47
2023-01-19T12:50:55.484Z,18.37
2023-01-19T12:53:27.674Z,18.36
2023-01-19T12:56:02.000Z,18.38
2023-01-19T12:58:31.390Z,18.26
2023-01-19T13:01:22.448Z,18.40
2023-01-19T13:04:10.745Z,18.38
2023-01-19T13:06:49.298Z,18.27
2023-01-19T13:09:34.328Z,18.32
2023-01-19T13:12:15.906Z,18.27
2023-01-19T13:14:46.122Z,18.12
2023-01-19T13:17:39.299Z,18.18
2023-01-19T13:20:29.599Z,18.24
2023-01-19T13:23:27.472Z,18.26
2023-01-19T13:26:14.265Z,18.23
2023-01-19T13:28:46.489Z,18.18
2023-01-19T13:31:16.479Z,18.16
2023-01-19T13:33:58.041Z,18.14
2023-01-19T13:36:48.891Z,18.15
2023-01-19T13:39:29.119Z,18.10
2023-01-19T13:42:02.632Z,17.97
2023-01-19T13:44:43.399Z,18.03
2023-01-19T13:47:21.344Z,18.05
2023-01-19T13:49:54.746Z,18.01
2023-01-19T13:52:26.025Z,18.03
2023-01-19T13:55:03.083Z,18.10
2023-01-19T13:57:35.284Z,18.06
2023-01-19T14:00:09.419Z,17.96
2023-01-19T14:02:42.722Z,18.01
2023-01-19T14:05:17.462Z,17.98
2023-01-19T14:07:47.641Z,17.96
2023-01-19T14:10:17.858Z,17.94
2023-01-19T14:12:58.933Z,17.90
2023-01-19T14:15:31.099Z,17.90
2023-01-19T14:18:12.368Z,17.95
2023-01-19T14:20:42.482Z,17.83
2023-01-19T14:23:37.136Z,17.89
2023-01-19T14:26:07.163Z,17.80
2023-01-19T14:28:41.556Z,17.83
2023-01-19T14:31:29.916Z,17.90
2023-01-19T14:34:02.014Z,17.76
2023-01-19T14:36:40.267Z,17.81
2023-01-19T14:39:24.129Z,17.87
2023-01-19T14:41:56.539Z,17.76
2023-01-19T14:44:35.829Z,17.74
2023-01-19T14:47:07.254Z,17.65
2023-01-19T14:49:42.367Z,17.60
2023-01-19T14:52:28.383Z,17.70
2023-01-19T14:55:00.779Z,17.58
2023-01-19T14:57:30.834Z,17.51
2023-01-19T15:00:00.205Z,17.50
2023-01-19T15:02:29.430Z,17.51
2023-01-19T15:04:58.951Z,17.46
2023-01-19T15:07:29.304Z,17.43
2023-01-19T15:10:00.820Z,17.51
2023-01-19T15:12:30.789Z,17.18
2023-01-19T15:15:00.335Z,17.15
2023-01-19T15:17:29.588Z,17.20
2023-01-19T15:19:58.955Z,17.31
2023-01-19T15:22:29.371Z,17.32
2023-01-19T15:25:01.037Z,17.14
2023-01-19T15:27:30.400Z,17.16
2023-01-19T15:30:00.696Z,17.09
2023-01-19T15:32:29.813Z,17.17
2023-01-19T15:34:59.043Z,17.09
2023-01-19T15:37:29.024Z,17.03
2023-01-19T15:39:58.406Z,16.88
2023-01-19T15:42:27.384Z,16.90
2023-01-19T15:44:56.693Z,16.75
2023-01-19T15:47:25.801Z,16.83
2023-01-19T15:49:55.138Z,16.92
2023-01-19T15:52:24.578Z,16.86
2023-01-19T15:54:53.893Z,16.86
2023-01-19T15:57:23.204Z,16.85
2023-01-19T15:59:52.340Z,16.83
2023-01-19T16:02:22.055Z,16.79
2023-01-19T16:04:51.753Z,16.76
2023-01-19T16:07:21.936Z,16.73
2023-01-19T16:09:51.551Z,16.72
2023-01-19T16:12:20.554Z,16.63
2023-01-19T16:14:50.336Z,16.66
2023-01-19T16:17:19.946Z,16.64
2023-01-19T16:19:49.480Z,16.59
2023-01-19T16:22:18.550Z,16.58
2023-01-19T16:24:48.231Z,16.50
2023-01-19T16:27:17.341Z,16.50
2023-01-19T16:29:46.733Z,16.42
2023-01-19T16:32:17.017Z,16.48
2023-01-19T16:34:46.428Z,16.55
2023-01-19T16:37:16.447Z,16.59
2023-01-19T16:39:46.499Z,16.56
2023-01-19T16:42:17.807Z,16.50
2023-01-19T16:44:47.291Z,16.50
2023-01-19T16:47:16.253Z,16.47
2023-01-19T16:49:46.015Z,16.49
2023-01-19T16:52:16.109Z,16.46
2023-01-19T16:54:49.670Z,16.47
2023-01-19T16:57:19.494Z,16.43
2023-01-19T16:59:48.999Z,16.45
2023-01-19T17:02:18.298Z,16.44
2023-01-19T17:04:48.254Z,16.45
2023-01-19T17:07:19.284Z,16.39
2023-01-19T17:09:48.611Z,16.41
2023-01-19T17:12:18.373Z,16.37
2023-01-19T17:14:51.091Z,16.29
2023-01-19T17:17:21.286Z,16.27
2023-01-19T17:19:51.417Z,16.28
2023-01-19T17:22:21.165Z,16.16
2023-01-19T17:24:50.891Z,16.09
2023-01-19T17:27:20.537Z,16.10
2023-01-19T17:29:51.369Z,16.09
2023-01-19T17:34:52.165Z,16.08
2023-01-19T17:37:21.415Z,16.04
2023-01-19T17:39:50.954Z,16.10
2023-01-19T17:42:20.321Z,16.09
2023-01-19T17:44:49.828Z,16.08
2023-01-19T17:47:18.899Z,15.97
2023-01-19T17:49:47.920Z,16.02
2023-01-19T17:52:17.987Z,15.99
2023-01-19T17:54:47.619Z,15.99
2023-01-19T17:57:16.673Z,15.97
2023-01-19T17:59:47.951Z,15.99
2023-01-19T18:02:17.505Z,16.01
2023-01-19T18:04:47.010Z,16.02
2023-01-19T18:07:16.194Z,16.03
2023-01-19T18:09:45.460Z,16.09
2023-01-19T18:12:15.348Z,16.08
2023-01-19T18:14:44.377Z,16.06
2023-01-19T18:17:13.637Z,16.07
2023-01-19T18:19:43.278Z,16.04
2023-01-19T18:22:12.950Z,16.00
2023-01-19T18:24:42.099Z,15.97
2023-01-19T18:27:11.698Z,16.00
2023-01-19T18:29:41.068Z,16.04
2023-01-19T18:32:10.606Z,16.00
2023-01-19T18:34:39.969Z,15.98
2023-01-19T18:37:10.157Z,15.96
2023-01-19T18:39:39.670Z,16.06
2023-01-19T18:42:09.201Z,16.10
2023-01-19T18:44:38.594Z,16.12
2023-01-19T18:47:07.793Z,16.08
2023-01-19T18:49:36.714Z,16.09
2023-01-19T18:52:06.456Z,16.03
2023-01-19T18:54:35.645Z,15.98
2023-01-19T18:57:04.833Z,16.00
2023-01-19T18:59:34.389Z,16.05
2023-01-19T19:02:06.228Z,16.06
2023-01-19T19:04:35.694Z,16.03
2023-01-19T19:07:04.834Z,15.94
2023-01-19T19:09:34.168Z,15.74
2023-01-19T19:12:03.651Z,15.80
2023-01-19T19:14:34.368Z,15.93
2023-01-19T19:17:03.600Z,15.97
2023-01-19T19:19:32.860Z,16.02
2023-01-19T19:22:02.165Z,16.06
2023-01-19T19:24:31.596Z,16.11
2023-01-19T19:27:01.057Z,16.12
2023-01-19T19:29:30.530Z,16.13
2023-01-19T19:32:00.549Z,16.09
2023-01-19T19:34:30.345Z,16.17
2023-01-19T19:37:01.120Z,16.19
2023-01-19T19:39:31.202Z,16.23
2023-01-19T19:42:00.319Z,16.19
2023-01-19T19:44:29.863Z,16.20
2023-01-19T19:46:59.353Z,16.27
2023-01-19T19:49:28.695Z,16.25
2023-01-19T19:51:57.875Z,16.23
2023-01-19T19:54:27.588Z,16.28
2023-01-19T19:56:56.422Z,16.34
2023-01-19T19:59:25.437Z,16.30
2023-01-19T20:01:55.890Z,16.38
2023-01-19T20:04:26.209Z,16.32
2023-01-19T20:06:55.748Z,16.23
2023-01-19T20:09:25.087Z,16.11
2023-01-19T20:11:54.513Z,16.17
2023-01-19T20:14:25.096Z,16.14
2023-01-19T20:16:55.316Z,16.10
2023-01-19T20:19:24.600Z,16.12
2023-01-19T20:21:53.890Z,16.17
2023-01-19T20:24:22.928Z,16.14
2023-01-19T20:26:54.277Z,16.16
2023-01-19T20:29:24.058Z,16.15
2023-01-19T20:31:56.799Z,16.16
2023-01-19T20:34:28.245Z,16.29
2023-01-19T20:36:57.744Z,16.00
2023-01-19T20:39:27.187Z,15.89
2023-01-19T20:41:56.415Z,15.89
2023-01-19T20:44:27.682Z,15.96
2023-01-19T20:46:57.322Z,15.84
2023-01-19T20:49:27.448Z,15.80
2023-01-19T20:51:59.549Z,15.76
2023-01-19T20:54:31.282Z,15.76
2023-01-19T20:57:00.833Z,15.67
2023-01-19T20:59:30.254Z,15.72
2023-01-19T21:01:59.582Z,15.68
2023-01-19T21:04:28.308Z,15.68
2023-01-19T21:06:57.494Z,15.65
2023-01-19T21:09:26.855Z,15.66
2023-01-19T21:11:57.440Z,15.74
2023-01-19T21:14:27.665Z,15.67
2023-01-19T21:17:00.304Z,15.64
2023-01-19T21:19:29.324Z,15.62
2023-01-19T21:21:58.624Z,15.63
2023-01-19T21:24:27.721Z,15.67
2023-01-19T21:26:56.968Z,15.60
2023-01-19T21:29:26.414Z,15.63
2023-01-19T21:31:55.928Z,15.64
2023-01-19T21:34:25.255Z,15.68
2023-01-19T21:36:54.781Z,15.63
2023-01-19T21:39:24.107Z,15.72
2023-01-19T21:41:53.412Z,15.72
2023-01-19T21:44:22.765Z,15.73
2023-01-19T21:46:51.952Z,15.73
2023-01-19T21:49:21.868Z,15.75
2023-01-19T21:51:53.619Z,15.68
2023-01-19T21:54:22.904Z,15.68
2023-01-19T21:56:52.278Z,15.58
2023-01-19T21:59:21.624Z,15.70
2023-01-19T22:01:51.288Z,15.72
2023-01-19T22:04:20.512Z,15.67
2023-01-19T22:06:49.610Z,15.67
2023-01-19T22:09:19.095Z,15.70
2023-01-19T22:11:48.628Z,15.68
2023-01-19T22:14:17.519Z,15.72
2023-01-19T22:16:46.973Z,15.74
2023-01-19T22:19:16.341Z,15.53
2023-01-19T22:21:45.555Z,15.56
2023-01-19T22:24:14.736Z,15.50
2023-01-19T22:26:43.938Z,15.48
2023-01-19T22:29:14.222Z,15.48
2023-01-19T22:31:44.238Z,15.37
2023-01-19T22:34:14.507Z,15.42
2023-01-19T22:36:44.319Z,15.27
2023-01-19T22:39:14.666Z,15.37
2023-01-19T22:41:48.985Z,15.47
2023-01-19T22:44:21.955Z,15.31
2023-01-19T22:46:55.168Z,15.29
2023-01-19T22:49:24.395Z,15.22
2023-01-19T22:51:55.281Z,15.26
2023-01-19T22:54:24.500Z,15.20
2023-01-19T22:56:53.407Z,15.25
2023-01-19T22:59:22.654Z,15.23
2023-01-19T23:01:52.441Z,15.27
2023-01-19T23:04:21.562Z,15.23
2023-01-19T23:06:53.177Z,15.30
2023-01-19T23:09:23.820Z,15.10
2023-01-19T23:11:53.871Z,15.15
2023-01-19T23:14:24.021Z,15.13
2023-01-19T23:16:53.589Z,15.09
2023-01-19T23:19:22.804Z,15.13
2023-01-19T23:21:54.869Z,15.14
2023-01-19T23:24:23.884Z,14.88
2023-01-19T23:26:53.742Z,14.94
2023-01-19T23:29:22.984Z,14.85
2023-01-19T23:31:54.541Z,14.93
2023-01-19T23:34:23.903Z,14.77
2023-01-19T23:36:53.111Z,14.79
2023-01-19T23:39:23.702Z,14.80
2023-01-19T23:41:53.090Z,14.72
2023-01-19T23:44:22.317Z,14.60
2023-01-19T23:46:52.034Z,14.42
2023-01-19T23:49:21.602Z,14.42
2023-01-19T23:51:50.984Z,14.32
2023-01-19T23:54:20.433Z,14.35
2023-01-19T23:56:49.721Z,14.29
2023-01-19T23:59:18.972Z,14.39
